Varmdo — SMXZ — position and weather

sailwx.info

Track history (hours):
 
Tides and Currents Weather Stations Pressure Air Temp Water Temp Dewpoint Dewpoint Depression Visibility Wind Speed Wind Dir Waves Ship Positions

Varmdo

Last reported at 2014-Aug-22 06:25 UTC. Time now 2014-Aug-22 07:54 UTC.
Position N 59°19' E 018°07'.

Length 38 m; draft 2.5 m.

Type: Passenger vessel. MMSI: 265520390.

Date/timePositionNaut miles runAvg speedWind from/ knotsBaromVisibWave heightAir tempDewpointWater temp
2014-Aug-22 06:25N 59°19' E 018°07'1 0.1
2014-Aug-21 15:32N 59°20' E 018°05'0 0.0
2014-Aug-21 10:26N 59°20' E 018°05'0 0.0
2014-Aug-20 15:33N 59°20' E 018°05'0 0.2
2014-Aug-20 14:31N 59°20' E 018°05'0 0.0
2014-Aug-20 11:19N 59°20' E 018°05'0 0.0
2014-Aug-20 09:13N 59°20' E 018°05'0 0.0
2014-Aug-20 06:31N 59°20' E 018°05'0 0.0
2014-Aug-19 11:14N 59°20' E 018°05'0 0.0
2014-Aug-18 15:33N 59°19' E 018°05'0 0.1
2014-Aug-18 11:11N 59°20' E 018°04'0 0.0
2014-Aug-18 10:29N 59°20' E 018°04'0 0.0
2014-Aug-18 06:14N 59°20' E 018°04'0 0.0
2014-Aug-17 18:31N 59°20' E 018°05'1 0.3
2014-Aug-17 13:25N 59°19' E 018°07'1 0.2
2014-Aug-17 06:33N 59°19' E 018°05'0 0.3
2014-Aug-17 05:32N 59°20' E 018°04'0 0.0
2014-Aug-17 04:29N 59°20' E 018°04'0 0.0
2014-Aug-17 03:26N 59°20' E 018°04'0 0.0
2014-Aug-17 02:29N 59°20' E 018°04'0 0.0
2014-Aug-17 01:32N 59°20' E 018°04'0 0.0
2014-Aug-17 00:32N 59°20' E 018°04'0 0.0
2014-Aug-16 23:32N 59°20' E 018°04'0 0.0
2014-Aug-16 22:32N 59°20' E 018°04'0 0.0
2014-Aug-16 21:32N 59°20' E 018°04'0 0.0
2014-Aug-16 20:32N 59°20' E 018°04'0 0.0
2014-Aug-16 19:32N 59°20' E 018°04'0 0.0
2014-Aug-16 18:32N 59°20' E 018°04'0 0.0
2014-Aug-16 17:20N 59°20' E 018°04'0 0.0
2014-Aug-16 16:26N 59°20' E 018°04'0 0.0
2014-Aug-16 15:26N 59°20' E 018°04'0 0.0
2014-Aug-16 13:23N 59°20' E 018°04'1 0.1
2014-Aug-16 06:33N 59°19' E 018°05'1 0.4
2014-Aug-16 05:15N 59°20' E 018°05'0 0.0
2014-Aug-16 04:21N 59°20' E 018°05'0 0.0
2014-Aug-16 03:27N 59°20' E 018°05'0 0.0
2014-Aug-16 02:09N 59°20' E 018°05'0 0.0
2014-Aug-16 01:33N 59°20' E 018°05'0 0.0
2014-Aug-16 00:33N 59°20' E 018°05'0 0.0
2014-Aug-15 23:33N 59°20' E 018°05'0 0.0
2014-Aug-15 22:33N 59°20' E 018°05'0 0.0
2014-Aug-15 21:33N 59°20' E 018°05'0 0.0
2014-Aug-15 20:33N 59°20' E 018°05'0 0.0
2014-Aug-15 19:33N 59°20' E 018°05'0 0.0
2014-Aug-15 09:31N 59°20' E 018°05'4 0.2
2014-Aug-14 15:27N 59°20' E 018°12'4 3.7
2014-Aug-14 14:21N 59°20' E 018°05'7 6.8
2014-Aug-14 13:17N 59°23' E 018°17'1 0.2
2014-Aug-14 07:15N 59°23' E 018°20'812.1
2014-Aug-14 06:33N 59°19' E 018°05'0 0.4
2014-Aug-14 05:33N 59°20' E 018°05'0 0.0
2014-Aug-14 04:33N 59°20' E 018°05'0 0.0
2014-Aug-14 03:33N 59°20' E 018°05'0 0.0
2014-Aug-14 02:33N 59°20' E 018°05'0 0.0
2014-Aug-14 01:15N 59°20' E 018°05'0 0.0
2014-Aug-14 00:33N 59°20' E 018°05'0 0.0
2014-Aug-13 23:33N 59°20' E 018°05'0 0.0
2014-Aug-13 22:33N 59°20' E 018°05'0 0.0
2014-Aug-13 21:12N 59°20' E 018°05'0 0.0
2014-Aug-13 20:30N 59°20' E 018°05'9 1.6
2014-Aug-13 15:16N 59°23' E 018°20'912.1
2014-Aug-13 14:33N 59°19' E 018°05'0 0.3
2014-Aug-13 13:10N 59°20' E 018°05'0 0.0
2014-Aug-13 12:28N 59°20' E 018°05'0 0.0
2014-Aug-13 10:28N 59°20' E 018°05'0 0.1
2014-Aug-13 08:33N 59°20' E 018°04'6 5.8
2014-Aug-13 07:33N 59°22' E 018°15'3 0.2
2014-Aug-12 14:20N 59°23' E 018°20'910.7
2014-Aug-12 13:32N 59°20' E 018°05'2 2.5
2014-Aug-12 12:33N 59°19' E 018°09'5 1.3
2014-Aug-12 08:28N 59°22' E 018°18'  
Track history (hours):
 
Tides and Currents Weather Stations Pressure Air Temp Water Temp Dewpoint Dewpoint Depression Visibility Wind Speed Wind Dir Waves Ship Positions

Varmdo

Last reported at 2014-Aug-22 06:25 UTC. Time now 2014-Aug-22 07:54 UTC.
Position N 59°19' E 018°07'.

Length 38 m; draft 2.5 m.

Type: Passenger vessel. MMSI: 265520390.

Date/timePositionNaut miles runAvg speedWind from/ knotsBaromVisibWave heightAir tempDewpointWater temp
2014-Aug-22 06:25N 59°19' E 018°07'1 0.1
2014-Aug-21 15:32N 59°20' E 018°05'0 0.0
2014-Aug-21 10:26N 59°20' E 018°05'0 0.0
2014-Aug-20 15:33N 59°20' E 018°05'0 0.2
2014-Aug-20 14:31N 59°20' E 018°05'0 0.0
2014-Aug-20 11:19N 59°20' E 018°05'0 0.0
2014-Aug-20 09:13N 59°20' E 018°05'0 0.0
2014-Aug-20 06:31N 59°20' E 018°05'0 0.0
2014-Aug-19 11:14N 59°20' E 018°05'0 0.0
2014-Aug-18 15:33N 59°19' E 018°05'0 0.1
2014-Aug-18 11:11N 59°20' E 018°04'0 0.0
2014-Aug-18 10:29N 59°20' E 018°04'0 0.0
2014-Aug-18 06:14N 59°20' E 018°04'0 0.0
2014-Aug-17 18:31N 59°20' E 018°05'1 0.3
2014-Aug-17 13:25N 59°19' E 018°07'1 0.2
2014-Aug-17 06:33N 59°19' E 018°05'0 0.3
2014-Aug-17 05:32N 59°20' E 018°04'0 0.0
2014-Aug-17 04:29N 59°20' E 018°04'0 0.0
2014-Aug-17 03:26N 59°20' E 018°04'0 0.0
2014-Aug-17 02:29N 59°20' E 018°04'0 0.0
2014-Aug-17 01:32N 59°20' E 018°04'0 0.0
2014-Aug-17 00:32N 59°20' E 018°04'0 0.0
2014-Aug-16 23:32N 59°20' E 018°04'0 0.0
2014-Aug-16 22:32N 59°20' E 018°04'0 0.0
2014-Aug-16 21:32N 59°20' E 018°04'0 0.0
2014-Aug-16 20:32N 59°20' E 018°04'0 0.0
2014-Aug-16 19:32N 59°20' E 018°04'0 0.0
2014-Aug-16 18:32N 59°20' E 018°04'0 0.0
2014-Aug-16 17:20N 59°20' E 018°04'0 0.0
2014-Aug-16 16:26N 59°20' E 018°04'0 0.0
2014-Aug-16 15:26N 59°20' E 018°04'0 0.0
2014-Aug-16 13:23N 59°20' E 018°04'1 0.1
2014-Aug-16 06:33N 59°19' E 018°05'1 0.4
2014-Aug-16 05:15N 59°20' E 018°05'0 0.0
2014-Aug-16 04:21N 59°20' E 018°05'0 0.0
2014-Aug-16 03:27N 59°20' E 018°05'0 0.0
2014-Aug-16 02:09N 59°20' E 018°05'0 0.0
2014-Aug-16 01:33N 59°20' E 018°05'0 0.0
2014-Aug-16 00:33N 59°20' E 018°05'0 0.0
2014-Aug-15 23:33N 59°20' E 018°05'0 0.0
2014-Aug-15 22:33N 59°20' E 018°05'0 0.0
2014-Aug-15 21:33N 59°20' E 018°05'0 0.0
2014-Aug-15 20:33N 59°20' E 018°05'0 0.0
2014-Aug-15 19:33N 59°20' E 018°05'0 0.0
2014-Aug-15 09:31N 59°20' E 018°05'4 0.2
2014-Aug-14 15:27N 59°20' E 018°12'4 3.7
2014-Aug-14 14:21N 59°20' E 018°05'7 6.8
2014-Aug-14 13:17N 59°23' E 018°17'1 0.2
2014-Aug-14 07:15N 59°23' E 018°20'812.1
2014-Aug-14 06:33N 59°19' E 018°05'0 0.4
2014-Aug-14 05:33N 59°20' E 018°05'0 0.0
2014-Aug-14 04:33N 59°20' E 018°05'0 0.0
2014-Aug-14 03:33N 59°20' E 018°05'0 0.0
2014-Aug-14 02:33N 59°20' E 018°05'0 0.0
2014-Aug-14 01:15N 59°20' E 018°05'0 0.0
2014-Aug-14 00:33N 59°20' E 018°05'0 0.0
2014-Aug-13 23:33N 59°20' E 018°05'0 0.0
2014-Aug-13 22:33N 59°20' E 018°05'0 0.0
2014-Aug-13 21:12N 59°20' E 018°05'0 0.0
2014-Aug-13 20:30N 59°20' E 018°05'9 1.6
2014-Aug-13 15:16N 59°23' E 018°20'912.1
2014-Aug-13 14:33N 59°19' E 018°05'0 0.3
2014-Aug-13 13:10N 59°20' E 018°05'0 0.0
2014-Aug-13 12:28N 59°20' E 018°05'0 0.0
2014-Aug-13 10:28N 59°20' E 018°05'0 0.1
2014-Aug-13 08:33N 59°20' E 018°04'6 5.8
2014-Aug-13 07:33N 59°22' E 018°15'3 0.2
2014-Aug-12 14:20N 59°23' E 018°20'910.7
2014-Aug-12 13:32N 59°20' E 018°05'2 2.5
2014-Aug-12 12:33N 59°19' E 018°09'5 1.3
2014-Aug-12 08:28N 59°22' E 018°18'  

Dump ship's entire track history